createdAt,value
2018-12-29T00:01:06.028Z,6.10
2018-12-29T00:03:34.449Z,6.55
2018-12-29T00:06:02.869Z,5.78
2018-12-29T00:08:31.285Z,6.08
2018-12-29T00:10:59.692Z,6.28
2018-12-29T00:13:28.113Z,6.60
2018-12-29T00:15:56.537Z,6.22
2018-12-29T00:18:25.184Z,6.30
2018-12-29T00:20:53.595Z,5.22
2018-12-29T00:23:22.354Z,5.75
2018-12-29T00:25:50.765Z,5.62
2018-12-29T00:28:19.189Z,5.83
2018-12-29T00:30:47.597Z,6.47
2018-12-29T00:33:16.291Z,6.58
2018-12-29T00:35:45.022Z,6.20
2018-12-29T00:38:13.481Z,6.95
2018-12-29T00:40:42.236Z,5.97
2018-12-29T00:43:10.885Z,6.90
2018-12-29T00:45:39.305Z,5.90
2018-12-29T00:48:07.720Z,6.28
2018-12-29T00:50:36.154Z,6.05
2018-12-29T00:53:04.783Z,7.70
2018-12-29T00:55:33.249Z,5.95
2018-12-29T00:58:01.903Z,6.03
2018-12-29T01:00:30.325Z,7.35
2018-12-29T01:02:58.735Z,6.50
2018-12-29T01:05:27.410Z,6.92
2018-12-29T01:07:56.079Z,6.30
2018-12-29T01:10:24.534Z,5.85
2018-12-29T01:12:52.958Z,6.85
2018-12-29T01:15:21.597Z,7.53
2018-12-29T01:17:50.054Z,6.80
2018-12-29T01:20:18.747Z,7.20
2018-12-29T01:22:47.503Z,6.70
2018-12-29T01:25:16.180Z,7.10
2018-12-29T01:27:44.593Z,6.55
2018-12-29T01:30:13.023Z,6.50
2018-12-29T01:32:41.450Z,6.70
2018-12-29T01:35:10.122Z,7.28
2018-12-29T01:37:38.822Z,7.20
2018-12-29T01:40:07.668Z,5.90
2018-12-29T01:42:36.117Z,6.25
2018-12-29T01:45:05.572Z,6.20
2018-12-29T01:47:33.981Z,5.45
2018-12-29T01:50:02.391Z,6.10
2018-12-29T01:52:30.817Z,6.17
2018-12-29T01:54:59.493Z,6.17
2018-12-29T01:57:27.950Z,5.60
2018-12-29T01:59:56.365Z,7.50
2018-12-29T02:02:24.784Z,6.95
2018-12-29T02:04:53.206Z,6.15
2018-12-29T02:07:21.625Z,7.15
2018-12-29T02:09:50.289Z,8.30
2018-12-29T02:12:18.709Z,9.05
2018-12-29T02:14:47.366Z,8.60
2018-12-29T02:17:15.786Z,7.40
2018-12-29T02:19:44.615Z,9.90
2018-12-29T02:22:13.073Z,9.50
2018-12-29T02:24:41.490Z,10.15
2018-12-29T02:27:09.914Z,11.15
2018-12-29T02:29:38.329Z,10.20
2018-12-29T02:32:06.749Z,9.90
2018-12-29T02:34:35.414Z,11.22
2018-12-29T02:37:03.833Z,10.25
2018-12-29T02:39:32.494Z,11.83
2018-12-29T02:42:01.127Z,11.18
2018-12-29T02:44:29.578Z,10.90
2018-12-29T02:46:58.242Z,11.35
2018-12-29T02:49:26.919Z,12.65
2018-12-29T02:51:55.339Z,13.45
2018-12-29T02:54:23.750Z,11.85
2018-12-29T02:56:52.173Z,12.60
2018-12-29T02:59:20.847Z,13.88
2018-12-29T03:01:49.258Z,13.13
2018-12-29T03:04:17.894Z,13.03
2018-12-29T03:06:46.714Z,15.30
2018-12-29T03:09:15.491Z,14.15
2018-12-29T03:11:44.183Z,14.45
2018-12-29T03:14:12.602Z,17.00
2018-12-29T03:16:41.013Z,16.55
2018-12-29T03:19:09.447Z,16.48
2018-12-29T03:21:37.857Z,13.85
2018-12-29T03:24:06.291Z,14.25
2018-12-29T03:26:34.929Z,14.38
2018-12-29T03:29:03.396Z,13.58
2018-12-29T03:31:32.139Z,13.50
2018-12-29T03:34:00.792Z,13.88
2018-12-29T03:36:29.241Z,12.20
2018-12-29T03:38:57.905Z,13.25
2018-12-29T03:41:26.387Z,13.93
2018-12-29T03:43:54.809Z,14.28
2018-12-29T03:46:23.238Z,13.60
2018-12-29T03:48:51.661Z,13.30
2018-12-29T03:51:20.079Z,12.68
2018-12-29T03:53:48.727Z,12.55
2018-12-29T03:56:17.411Z,12.88
2018-12-29T03:58:45.878Z,13.32
2018-12-29T04:01:14.295Z,13.35
2018-12-29T04:03:42.983Z,11.50
2018-12-29T04:06:11.799Z,13.50
2018-12-29T04:08:40.204Z,12.85
2018-12-29T04:11:08.651Z,12.85
2018-12-29T04:13:37.190Z,13.15
2018-12-29T04:16:05.847Z,13.00
2018-12-29T04:18:34.303Z,12.40
2018-12-29T04:21:03.026Z,13.00
2018-12-29T04:23:31.478Z,13.40
2018-12-29T04:25:59.901Z,11.25
2018-12-29T04:28:28.325Z,12.68
2018-12-29T04:30:56.744Z,11.53
2018-12-29T04:33:25.155Z,12.07
2018-12-29T04:35:53.578Z,12.90
2018-12-29T04:38:22.012Z,12.78
2018-12-29T04:40:50.431Z,12.23
2018-12-29T04:43:18.841Z,11.60
2018-12-29T04:45:47.348Z,11.95
2018-12-29T04:48:15.767Z,12.65
2018-12-29T04:50:44.190Z,11.65
2018-12-29T04:53:12.614Z,12.65
2018-12-29T04:55:41.037Z,13.10
2018-12-29T04:58:09.711Z,12.00
2018-12-29T05:00:38.126Z,13.13
2018-12-29T05:03:06.787Z,11.93
2018-12-29T05:05:35.206Z,13.18
2018-12-29T05:08:03.629Z,14.00
2018-12-29T05:10:32.041Z,15.30
2018-12-29T05:13:00.715Z,11.78
2018-12-29T05:15:29.134Z,13.20
2018-12-29T05:17:57.803Z,12.68
2018-12-29T05:20:26.223Z,12.90
2018-12-29T05:22:54.645Z,13.00
2018-12-29T05:25:23.074Z,13.10
2018-12-29T05:27:51.498Z,13.60
2018-12-29T05:30:20.188Z,11.90
2018-12-29T05:32:48.829Z,13.48
2018-12-29T05:35:17.281Z,13.58
2018-12-29T05:37:45.710Z,14.07
2018-12-29T05:40:14.126Z,12.95
2018-12-29T05:42:42.810Z,14.63
2018-12-29T05:45:11.288Z,11.93
2018-12-29T05:47:39.710Z,13.40
2018-12-29T05:50:08.126Z,12.95
2018-12-29T05:52:36.562Z,14.07
2018-12-29T05:55:05.214Z,12.05
2018-12-29T05:57:33.678Z,12.10
2018-12-29T06:00:02.102Z,13.88
2018-12-29T06:02:30.531Z,14.05
2018-12-29T06:04:59.195Z,12.47
2018-12-29T06:07:27.626Z,12.50
2018-12-29T06:09:56.051Z,13.95
2018-12-29T06:12:24.479Z,13.13
2018-12-29T06:14:52.893Z,13.75
2018-12-29T06:17:21.320Z,14.47
2018-12-29T06:19:49.735Z,14.80
2018-12-29T06:22:18.429Z,13.60
2018-12-29T06:24:46.829Z,13.43
2018-12-29T06:27:15.262Z,15.15
2018-12-29T06:29:44.054Z,13.30
2018-12-29T06:32:12.501Z,12.82
2018-12-29T06:34:40.914Z,11.80
2018-12-29T06:37:09.357Z,14.83
2018-12-29T06:39:37.773Z,14.83
2018-12-29T06:42:06.189Z,15.25
2018-12-29T06:44:34.625Z,14.23
2018-12-29T06:47:03.765Z,15.50
2018-12-29T06:49:32.185Z,13.95
2018-12-29T06:52:00.599Z,13.75
2018-12-29T06:54:29.273Z,13.05
2018-12-29T06:56:57.735Z,14.18
2018-12-29T06:59:26.166Z,15.45
2018-12-29T07:01:54.580Z,15.13
2018-12-29T07:04:22.997Z,13.32
2018-12-29T07:06:51.419Z,13.80
2018-12-29T07:09:20.198Z,16.20
2018-12-29T07:11:48.614Z,13.88
2018-12-29T07:14:17.323Z,14.60
2018-12-29T07:16:45.782Z,14.13
2018-12-29T07:19:14.210Z,13.50
2018-12-29T07:21:42.631Z,15.13
2018-12-29T07:24:11.271Z,14.10
2018-12-29T07:26:39.737Z,14.05
2018-12-29T07:29:08.153Z,14.15
2018-12-29T07:31:36.821Z,12.40
2018-12-29T07:34:05.250Z,12.70
2018-12-29T07:36:33.665Z,13.75
2018-12-29T07:39:02.093Z,14.85
2018-12-29T07:41:30.507Z,13.80
2018-12-29T07:43:58.937Z,13.05
2018-12-29T07:46:27.356Z,15.53
2018-12-29T07:48:55.790Z,14.60
2018-12-29T07:51:24.547Z,14.05
2018-12-29T07:53:53.023Z,16.30
2018-12-29T07:56:21.438Z,14.40
2018-12-29T07:58:49.871Z,15.05
2018-12-29T08:01:18.361Z,14.95
2018-12-29T08:03:46.806Z,16.85
2018-12-29T08:06:15.238Z,16.17
2018-12-29T08:08:43.888Z,15.45
2018-12-29T08:11:12.634Z,16.62
2018-12-29T08:13:41.070Z,15.93
2018-12-29T08:16:09.573Z,15.35
2018-12-29T08:18:38.238Z,16.82
2018-12-29T08:21:06.705Z,14.73
2018-12-29T08:23:35.128Z,14.05
2018-12-29T08:26:03.559Z,15.05
2018-12-29T08:28:31.971Z,14.78
2018-12-29T08:31:00.408Z,14.55
2018-12-29T08:33:29.125Z,14.83
2018-12-29T08:35:57.589Z,13.70
2018-12-29T08:38:26.057Z,13.22
2018-12-29T08:40:54.526Z,12.63
2018-12-29T08:43:22.953Z,14.70
2018-12-29T08:45:51.384Z,13.78
2018-12-29T08:48:20.022Z,14.58
2018-12-29T08:50:48.697Z,14.60
2018-12-29T08:53:17.158Z,14.47
2018-12-29T08:55:45.820Z,14.30
2018-12-29T08:58:14.285Z,14.60
2018-12-29T09:00:42.709Z,13.62
2018-12-29T09:03:11.143Z,12.82
2018-12-29T09:05:39.643Z,13.60
2018-12-29T09:08:08.363Z,13.83
2018-12-29T09:10:36.903Z,12.00
2018-12-29T09:13:05.691Z,14.83
2018-12-29T09:15:34.131Z,12.55
2018-12-29T09:18:02.615Z,13.22
2018-12-29T09:20:31.047Z,12.60
2018-12-29T09:22:59.705Z,11.15
2018-12-29T09:25:28.146Z,10.68
2018-12-29T09:27:56.585Z,13.13
2018-12-29T09:30:25.039Z,12.55
2018-12-29T09:32:53.476Z,12.20
2018-12-29T09:35:21.950Z,12.00
2018-12-29T09:37:50.391Z,11.57
2018-12-29T09:40:18.810Z,11.48
2018-12-29T09:42:47.528Z,11.70
2018-12-29T09:45:16.305Z,12.45
2018-12-29T09:47:44.788Z,11.70
2018-12-29T09:50:13.214Z,12.55
2018-12-29T09:52:41.646Z,11.73
2018-12-29T09:55:10.073Z,12.13
2018-12-29T09:57:38.506Z,12.63
2018-12-29T10:00:08.270Z,12.98
2018-12-29T10:02:36.963Z,11.55
2018-12-29T10:05:05.611Z,14.33
2018-12-29T10:07:34.084Z,10.38
2018-12-29T10:10:02.511Z,11.90
2018-12-29T10:12:30.954Z,13.95
2018-12-29T10:14:59.619Z,12.65
2018-12-29T10:17:28.787Z,11.93
2018-12-29T10:19:57.374Z,13.05
2018-12-29T10:22:26.068Z,11.95
2018-12-29T10:24:54.491Z,11.88
2018-12-29T10:27:23.168Z,11.93
2018-12-29T10:29:51.596Z,11.68
2018-12-29T10:32:20.033Z,11.68
2018-12-29T10:34:48.458Z,11.48
2018-12-29T10:37:16.893Z,11.18
2018-12-29T10:39:45.643Z,11.03
2018-12-29T10:42:14.119Z,10.98
2018-12-29T10:44:42.559Z,11.65
2018-12-29T10:47:11.004Z,10.65
2018-12-29T10:49:39.434Z,12.95
2018-12-29T10:52:07.885Z,10.48
2018-12-29T10:54:36.621Z,11.25
2018-12-29T10:57:05.107Z,11.83
2018-12-29T10:59:33.530Z,10.32
2018-12-29T11:02:01.974Z,12.00
2018-12-29T11:04:30.390Z,11.23
2018-12-29T11:06:59.075Z,12.10
2018-12-29T11:09:27.554Z,10.38
2018-12-29T11:11:56.058Z,12.37
2018-12-29T11:14:24.502Z,11.20
2018-12-29T11:16:52.931Z,12.37
2018-12-29T11:19:21.375Z,10.60
2018-12-29T11:21:50.038Z,11.25
2018-12-29T11:24:18.511Z,11.70
2018-12-29T11:26:46.940Z,11.68
2018-12-29T11:29:15.373Z,11.50
2018-12-29T11:31:43.803Z,10.50
2018-12-29T11:34:12.238Z,11.93
2018-12-29T11:36:40.666Z,10.28
2018-12-29T11:39:09.111Z,12.15
2018-12-29T11:41:37.544Z,11.33
2018-12-29T11:44:05.974Z,11.80
2018-12-29T11:46:34.626Z,10.38
2018-12-29T11:49:03.111Z,10.93
2018-12-29T11:51:31.799Z,12.05
2018-12-29T11:54:00.314Z,11.05
2018-12-29T11:56:28.743Z,10.85
2018-12-29T11:58:57.178Z,11.70
2018-12-29T12:01:25.826Z,10.90
2018-12-29T12:03:54.304Z,11.48
2018-12-29T12:06:22.726Z,9.63
2018-12-29T12:08:51.382Z,10.68
2018-12-29T12:11:19.855Z,9.85
2018-12-29T12:13:48.514Z,10.25
2018-12-29T12:16:16.987Z,10.60
2018-12-29T12:18:45.427Z,11.38
2018-12-29T12:21:14.069Z,9.48
2018-12-29T12:23:42.567Z,9.50
2018-12-29T12:26:10.994Z,11.00
2018-12-29T12:28:39.638Z,10.67
2018-12-29T12:31:08.079Z,10.70
2018-12-29T12:33:36.498Z,10.85
2018-12-29T12:36:05.145Z,9.90
2018-12-29T12:38:33.614Z,10.95
2018-12-29T12:41:02.046Z,9.53
2018-12-29T12:43:30.474Z,9.50
2018-12-29T12:45:59.609Z,9.88
2018-12-29T12:48:28.074Z,10.40
2018-12-29T12:50:57.056Z,10.80
2018-12-29T12:53:25.742Z,11.50
2018-12-29T12:55:54.239Z,9.95
2018-12-29T12:58:22.960Z,10.00
2018-12-29T13:00:51.759Z,10.03
2018-12-29T13:03:20.567Z,10.27
2018-12-29T13:05:49.414Z,12.40
2018-12-29T13:08:17.875Z,10.90
2018-12-29T13:10:46.314Z,12.10
2018-12-29T13:13:14.738Z,11.57
2018-12-29T13:15:43.212Z,11.50
2018-12-29T13:18:13.207Z,11.87
2018-12-29T13:20:41.740Z,10.90
2018-12-29T13:23:10.353Z,11.37
2018-12-29T13:25:38.773Z,11.23
2018-12-29T13:28:07.203Z,11.37
2018-12-29T13:30:36.121Z,10.73
2018-12-29T13:33:04.586Z,11.57
2018-12-29T13:35:33.028Z,10.18
2018-12-29T13:38:01.670Z,10.70
2018-12-29T13:40:30.161Z,11.73
2018-12-29T13:42:59.105Z,10.77
2018-12-29T13:45:27.590Z,11.37
2018-12-29T13:47:56.064Z,10.80
2018-12-29T13:50:24.722Z,10.97
2018-12-29T13:52:53.199Z,11.03
2018-12-29T13:55:22.156Z,11.50
2018-12-29T13:57:50.574Z,10.93
2018-12-29T14:00:19.286Z,10.87
2018-12-29T14:02:47.723Z,9.93
2018-12-29T14:05:16.162Z,10.77
2018-12-29T14:07:44.586Z,11.43
2018-12-29T14:10:13.226Z,11.50
2018-12-29T14:12:41.706Z,11.93
2018-12-29T14:15:10.133Z,11.87
2018-12-29T14:17:38.654Z,12.70
2018-12-29T14:20:07.233Z,11.87
2018-12-29T14:22:35.741Z,11.10
2018-12-29T14:25:04.243Z,11.40
2018-12-29T14:27:32.690Z,12.47
2018-12-29T14:30:01.337Z,10.55
2018-12-29T14:32:49.158Z,12.30
2018-12-29T14:35:17.857Z,12.03
2018-12-29T14:37:46.334Z,10.53
2018-12-29T14:40:15.038Z,11.48
2018-12-29T14:42:43.498Z,10.93
2018-12-29T14:45:11.930Z,10.98
2018-12-29T14:47:40.510Z,10.83
2018-12-29T14:50:09.052Z,9.68
2018-12-29T14:52:38.300Z,12.15
2018-12-29T14:55:06.768Z,10.15
2018-12-29T14:57:35.216Z,10.45
2018-12-29T15:00:04.356Z,9.50
2018-12-29T15:02:33.144Z,10.43
2018-12-29T15:05:02.091Z,11.70
2018-12-29T15:07:30.572Z,10.68
2018-12-29T15:09:59.212Z,9.93
2018-12-29T15:12:27.686Z,10.70
2018-12-29T15:14:56.741Z,10.63
2018-12-29T15:17:25.245Z,11.10
2018-12-29T15:19:53.682Z,9.95
2018-12-29T15:22:22.187Z,10.58
2018-12-29T15:24:50.998Z,11.30
2018-12-29T15:27:19.501Z,11.55
2018-12-29T15:29:48.036Z,9.73
2018-12-29T15:32:16.744Z,9.53
2018-12-29T15:34:45.465Z,10.10
2018-12-29T15:37:13.939Z,9.78
2018-12-29T15:39:42.443Z,10.03
2018-12-29T15:42:10.880Z,10.05
2018-12-29T15:44:39.546Z,9.20
2018-12-29T15:47:08.387Z,10.85
2018-12-29T15:49:37.252Z,9.83
2018-12-29T15:52:05.717Z,10.45
2018-12-29T15:54:34.532Z,11.35
2018-12-29T15:57:02.954Z,9.83
2018-12-29T15:59:31.677Z,10.00
2018-12-29T16:02:00.173Z,11.28
2018-12-29T16:04:28.629Z,10.18
2018-12-29T16:06:57.131Z,10.38
2018-12-29T16:09:26.097Z,11.60
2018-12-29T16:11:54.934Z,12.78
2018-12-29T16:14:23.386Z,10.30
2018-12-29T16:16:52.184Z,10.98
2018-12-29T16:19:20.696Z,11.78
2018-12-29T16:21:50.241Z,13.55
2018-12-29T16:24:19.158Z,10.48
2018-12-29T16:26:47.946Z,12.30
2018-12-29T16:29:16.724Z,13.32
2018-12-29T16:31:45.230Z,10.75
2018-12-29T16:34:14.124Z,11.85
2018-12-29T16:36:42.828Z,12.00
2018-12-29T16:39:11.295Z,13.65
2018-12-29T16:41:39.740Z,13.38
2018-12-29T16:44:08.170Z,12.60
2018-12-29T16:46:36.786Z,12.85
2018-12-29T16:49:06.970Z,12.82
2018-12-29T16:51:35.452Z,12.95
2018-12-29T16:54:03.886Z,12.85
2018-12-29T16:56:32.499Z,12.55
2018-12-29T16:59:01.017Z,12.68
2018-12-29T17:01:30.274Z,12.03
2018-12-29T17:03:58.891Z,13.08
2018-12-29T17:06:29.056Z,13.30
2018-12-29T17:08:57.558Z,13.70
2018-12-29T17:11:26.075Z,14.10
2018-12-29T17:13:54.511Z,14.18
2018-12-29T17:16:23.019Z,12.53
2018-12-29T17:18:51.451Z,13.00
2018-12-29T17:21:19.963Z,12.85
2018-12-29T17:23:48.663Z,12.82
2018-12-29T17:26:17.371Z,13.62
2018-12-29T17:28:45.834Z,12.93
2018-12-29T17:31:14.547Z,12.40
2018-12-29T17:33:44.035Z,12.70
2018-12-29T17:36:12.552Z,13.40
2018-12-29T17:38:40.970Z,13.05
2018-12-29T17:41:11.300Z,15.25
2018-12-29T17:43:39.811Z,13.30
2018-12-29T17:46:08.314Z,14.15
2018-12-29T17:48:36.829Z,13.28
2018-12-29T17:51:05.518Z,12.28
2018-12-29T17:53:34.408Z,13.50
2018-12-29T17:56:02.848Z,13.32
2018-12-29T17:58:31.350Z,11.90
2018-12-29T18:00:59.858Z,14.05
2018-12-29T18:03:28.286Z,13.03
2018-12-29T18:05:56.969Z,14.15
2018-12-29T18:08:25.483Z,17.67
2018-12-29T18:10:53.983Z,16.45
2018-12-29T18:13:22.701Z,15.85
2018-12-29T18:15:51.205Z,19.45
2018-12-29T18:18:19.718Z,18.95
2018-12-29T18:20:48.281Z,13.50
2018-12-29T18:23:16.772Z,14.25
2018-12-29T18:25:45.283Z,13.00
2018-12-29T18:28:15.224Z,14.00
2018-12-29T18:30:43.723Z,13.20
2018-12-29T18:33:12.557Z,14.13
2018-12-29T18:35:40.975Z,14.58
2018-12-29T18:38:09.409Z,13.40
2018-12-29T18:40:37.843Z,12.93
2018-12-29T18:43:06.369Z,12.85
2018-12-29T18:45:35.367Z,12.47
2018-12-29T18:48:04.232Z,13.35
2018-12-29T18:50:32.741Z,14.85
2018-12-29T18:53:01.180Z,15.18
2018-12-29T18:55:29.682Z,15.38
2018-12-29T18:57:58.199Z,11.83
2018-12-29T19:00:27.099Z,12.20
2018-12-29T19:02:55.552Z,11.68
2018-12-29T19:05:23.999Z,16.25
2018-12-29T19:07:52.510Z,13.00
2018-12-29T19:10:20.936Z,19.07
2018-12-29T19:12:49.371Z,25.00
2018-12-29T19:15:18.080Z,19.77
2018-12-29T19:17:46.886Z,13.43
2018-12-29T19:20:15.803Z,12.23
2018-12-29T19:22:44.288Z,11.90
2018-12-29T19:25:12.774Z,13.03
2018-12-29T19:27:41.285Z,12.95
2018-12-29T19:30:09.799Z,11.80
2018-12-29T19:32:38.233Z,13.90
2018-12-29T19:35:06.998Z,10.93
2018-12-29T19:37:35.510Z,11.63
2018-12-29T19:40:05.704Z,11.95
2018-12-29T19:42:34.484Z,13.43
2018-12-29T19:45:03.208Z,14.07
2018-12-29T19:47:31.897Z,15.08
2018-12-29T19:50:00.850Z,14.20
2018-12-29T19:52:29.354Z,12.47
2018-12-29T19:54:57.790Z,13.08
2018-12-29T19:57:26.911Z,12.85
2018-12-29T19:59:55.390Z,12.28
2018-12-29T20:02:24.211Z,12.63
2018-12-29T20:04:52.926Z,13.18
2018-12-29T20:07:21.741Z,12.73
2018-12-29T20:09:50.271Z,13.20
2018-12-29T20:12:18.698Z,13.38
2018-12-29T20:14:47.241Z,15.63
2018-12-29T20:17:15.974Z,14.10
2018-12-29T20:19:44.620Z,15.72
2018-12-29T20:22:13.112Z,15.32
2018-12-29T20:24:41.635Z,15.20
2018-12-29T20:27:10.135Z,15.75
2018-12-29T20:29:38.578Z,15.88
2018-12-29T20:32:07.009Z,15.93
2018-12-29T20:34:36.065Z,12.63
2018-12-29T20:37:04.644Z,16.80
2018-12-29T20:39:33.154Z,17.27
2018-12-29T20:42:01.592Z,17.20
2018-12-29T20:44:30.098Z,17.57
2018-12-29T20:46:58.944Z,15.98
2018-12-29T20:49:29.497Z,17.77
2018-12-29T20:51:58.137Z,18.42
2018-12-29T20:54:26.639Z,18.10
2018-12-29T20:56:55.348Z,17.48
2018-12-29T20:59:23.862Z,19.75
2018-12-29T21:01:52.597Z,16.32
2018-12-29T21:04:21.063Z,17.60
2018-12-29T21:06:49.752Z,18.17
2018-12-29T21:09:18.218Z,17.90
2018-12-29T21:11:46.653Z,12.73
2018-12-29T21:14:15.454Z,20.10
2018-12-29T21:16:44.110Z,15.48
2018-12-29T21:19:12.571Z,15.55
2018-12-29T21:21:41.091Z,18.30
2018-12-29T21:24:12.431Z,17.85
2018-12-29T21:26:39.678Z,16.23
2018-12-29T21:29:08.330Z,16.45
2018-12-29T21:31:37.014Z,17.12
2018-12-29T21:34:05.511Z,18.20
2018-12-29T21:36:34.006Z,16.55
2018-12-29T21:39:02.598Z,18.52
2018-12-29T21:41:31.460Z,18.12
2018-12-29T21:43:59.883Z,16.60
2018-12-29T21:46:28.384Z,17.65
2018-12-29T21:48:56.813Z,17.75
2018-12-29T21:51:25.246Z,16.40
2018-12-29T21:53:53.741Z,18.23
2018-12-29T21:56:22.690Z,17.67
2018-12-29T21:58:51.126Z,17.27
2018-12-29T22:01:19.550Z,18.30
2018-12-29T22:03:48.067Z,18.73
2018-12-29T22:06:16.501Z,16.35
2018-12-29T22:08:45.014Z,17.85
2018-12-29T22:11:13.438Z,17.85
2018-12-29T22:13:41.873Z,17.65
2018-12-29T22:16:10.539Z,15.28
2018-12-29T22:18:39.049Z,20.37
2018-12-29T22:21:07.687Z,15.83
2018-12-29T22:23:36.333Z,18.15
2018-12-29T22:26:04.803Z,17.12
2018-12-29T22:28:33.460Z,17.27
2018-12-29T22:31:01.921Z,16.90
2018-12-29T22:33:30.359Z,20.52
2018-12-29T22:35:58.788Z,18.07
2018-12-29T22:38:27.441Z,17.35
2018-12-29T22:40:55.902Z,17.45
2018-12-29T22:43:24.342Z,16.55
2018-12-29T22:45:53.032Z,15.03
2018-12-29T22:48:21.773Z,15.78
2018-12-29T22:50:50.381Z,16.30
2018-12-29T22:53:19.146Z,18.90
2018-12-29T22:55:47.622Z,18.15
2018-12-29T22:58:16.037Z,16.82
2018-12-29T23:00:46.823Z,17.82
2018-12-29T23:03:16.200Z,15.32
2018-12-29T23:05:44.947Z,15.08
2018-12-29T23:08:13.578Z,17.32
2018-12-29T23:10:42.094Z,19.65
2018-12-29T23:13:10.518Z,18.50
2018-12-29T23:15:39.030Z,18.35
2018-12-29T23:18:07.453Z,16.82
2018-12-29T23:20:36.162Z,16.95
2018-12-29T23:23:04.684Z,18.57
2018-12-29T23:25:33.172Z,18.67
2018-12-29T23:28:01.593Z,19.00
2018-12-29T23:30:30.034Z,17.80
2018-12-29T23:32:58.532Z,18.73
2018-12-29T23:35:27.174Z,17.00
2018-12-29T23:37:56.013Z,18.37
2018-12-29T23:40:24.523Z,21.75
2018-12-29T23:42:53.018Z,18.10
2018-12-29T23:45:21.531Z,18.55
2018-12-29T23:47:50.248Z,18.27
2018-12-29T23:50:18.714Z,19.37
2018-12-29T23:52:47.431Z,18.62
2018-12-29T23:55:16.030Z,17.40
2018-12-29T23:57:44.465Z,16.95
